createdAt,value
2023-04-05T00:01:53.905Z,33.60
2023-04-05T00:04:31.385Z,31.80
2023-04-05T00:07:08.481Z,30.80
2023-04-05T00:09:43.979Z,27.90
2023-04-05T00:12:19.132Z,31.60
2023-04-05T00:14:56.469Z,28.30
2023-04-05T00:17:34.197Z,26.30
2023-04-05T00:20:15.202Z,29.60
2023-04-05T00:23:08.199Z,28.60
2023-04-05T00:25:42.938Z,28.60
2023-04-05T00:28:21.333Z,31.80
2023-04-05T00:30:58.776Z,33.50
2023-04-05T00:33:33.385Z,34.50
2023-04-05T00:36:18.177Z,42.90
2023-04-05T00:38:53.836Z,31.20
2023-04-05T00:41:30.364Z,33.80
2023-04-05T00:44:08.375Z,34.70
2023-04-05T00:46:48.322Z,29.90
2023-04-05T00:49:30.631Z,27.90
2023-04-05T00:52:06.071Z,28.60
2023-04-05T00:54:45.578Z,29.40
2023-04-05T00:57:25.158Z,29.20
2023-04-05T01:00:03.099Z,26.50
2023-04-05T01:03:02.537Z,28.50
2023-04-05T01:05:48.531Z,28.60
2023-04-05T01:08:30.710Z,26.30
2023-04-05T01:11:09.290Z,26.60
2023-04-05T01:13:47.841Z,28.70
2023-04-05T01:16:24.251Z,25.70
2023-04-05T01:19:00.882Z,26.20
2023-04-05T01:22:26.612Z,26.30
2023-04-05T01:25:24.087Z,30.40
2023-04-05T01:28:21.640Z,33.60
2023-04-05T01:31:09.644Z,38.20
2023-04-05T01:33:59.151Z,31.90
2023-04-05T01:36:39.397Z,30.70
2023-04-05T01:39:18.043Z,27.70
2023-04-05T01:41:54.012Z,27.40
2023-04-05T01:44:37.457Z,27.30
2023-04-05T01:47:11.899Z,27.60
2023-04-05T01:49:50.258Z,30.90
2023-04-05T01:52:26.398Z,29.20
2023-04-05T01:55:01.161Z,31.20
2023-04-05T01:57:36.068Z,26.10
2023-04-05T02:00:15.028Z,28.40
2023-04-05T02:02:49.322Z,27.00
2023-04-05T02:05:28.942Z,32.80
2023-04-05T02:08:06.495Z,29.80
2023-04-05T02:10:42.451Z,28.80
2023-04-05T02:13:22.449Z,26.10
2023-04-05T02:15:59.324Z,27.90
2023-04-05T02:18:36.039Z,29.50
2023-04-05T02:21:11.923Z,24.60
2023-04-05T02:23:47.253Z,26.70
2023-04-05T02:26:23.345Z,23.80
2023-04-05T02:28:58.638Z,25.80
2023-04-05T02:31:36.085Z,25.60
2023-04-05T02:34:12.299Z,24.90
2023-04-05T02:36:47.815Z,24.30
2023-04-05T02:39:23.523Z,24.30
2023-04-05T02:42:00.014Z,20.30
2023-04-05T02:44:37.333Z,23.50
2023-04-05T02:47:18.042Z,24.00
2023-04-05T02:49:54.430Z,21.00
2023-04-05T02:52:29.958Z,21.60
2023-04-05T02:55:06.559Z,22.60
2023-04-05T02:57:43.985Z,24.50
2023-04-05T03:00:32.232Z,21.60
2023-04-05T03:03:10.194Z,24.50
2023-04-05T03:05:48.769Z,27.20
2023-04-05T03:08:24.947Z,24.40
2023-04-05T03:11:08.636Z,30.80
2023-04-05T03:13:46.514Z,25.70
2023-04-05T03:16:31.612Z,25.30
2023-04-05T03:19:13.548Z,27.60
2023-04-05T03:21:51.361Z,26.90
2023-04-05T03:24:34.010Z,27.60
2023-04-05T03:27:19.137Z,26.10
2023-04-05T03:30:16.034Z,27.10
2023-04-05T03:33:02.145Z,25.50
2023-04-05T03:36:04.687Z,27.40
2023-04-05T03:38:42.611Z,32.50
2023-04-05T03:41:24.044Z,33.20
2023-04-05T03:44:00.130Z,30.60
2023-04-05T03:46:39.488Z,31.20
2023-04-05T03:49:17.482Z,32.80
2023-04-05T03:51:54.582Z,34.90
2023-04-05T03:54:32.687Z,32.50
2023-04-05T03:57:07.921Z,28.10
2023-04-05T03:59:46.110Z,32.20
2023-04-05T04:02:21.289Z,54.30
2023-04-05T04:04:57.909Z,62.90
2023-04-05T04:07:34.122Z,51.10
2023-04-05T04:10:13.107Z,50.50
2023-04-05T04:12:49.298Z,58.70
2023-04-05T04:15:25.898Z,54.20
2023-04-05T04:18:26.228Z,43.80
2023-04-05T04:21:19.552Z,46.00
2023-04-05T04:24:06.066Z,43.20
2023-04-05T04:27:01.398Z,43.10
2023-04-05T04:29:49.481Z,54.30
2023-04-05T04:32:54.333Z,52.70
2023-04-05T04:35:51.442Z,52.40
2023-04-05T04:38:28.735Z,59.10
2023-04-05T04:41:27.569Z,47.10
2023-04-05T04:44:37.696Z,44.90
2023-04-05T04:47:40.316Z,43.50
2023-04-05T04:50:26.530Z,36.50
2023-04-05T04:53:04.665Z,41.90
2023-04-05T04:55:39.273Z,31.20
2023-04-05T04:58:16.197Z,33.10
2023-04-05T05:00:56.008Z,32.10
2023-04-05T05:03:30.797Z,38.30
2023-04-05T05:06:07.492Z,46.60
2023-04-05T05:08:43.171Z,49.60
2023-04-05T05:11:19.440Z,57.10
2023-04-05T05:13:54.308Z,47.00
2023-04-05T05:16:33.972Z,35.50
2023-04-05T05:19:10.109Z,30.20
2023-04-05T05:22:00.328Z,29.70
2023-04-05T05:24:36.001Z,29.00
2023-04-05T05:27:13.153Z,32.00
2023-04-05T05:29:50.904Z,26.60
2023-04-05T05:32:27.557Z,24.40
2023-04-05T05:35:31.063Z,23.30
2023-04-05T05:38:10.692Z,25.10
2023-04-05T05:40:55.772Z,19.30
2023-04-05T05:43:33.214Z,20.50
2023-04-05T05:46:08.401Z,18.40
2023-04-05T05:48:42.176Z,20.80
2023-04-05T05:51:20.886Z,22.00
2023-04-05T05:53:57.001Z,21.30
2023-04-05T05:56:33.686Z,21.90
2023-04-05T05:59:08.838Z,19.90
2023-04-05T06:01:48.446Z,18.90
2023-04-05T06:04:42.199Z,20.00
2023-04-05T06:07:17.668Z,24.80
2023-04-05T06:09:52.457Z,20.30
2023-04-05T06:12:28.885Z,21.00
2023-04-05T06:15:05.374Z,20.00
2023-04-05T06:17:42.802Z,18.50
2023-04-05T06:20:19.222Z,18.20
2023-04-05T06:22:54.977Z,18.00
2023-04-05T06:25:34.038Z,19.20
2023-04-05T06:28:09.474Z,19.20
2023-04-05T06:30:46.282Z,16.30
2023-04-05T06:33:22.562Z,14.50
2023-04-05T06:35:58.713Z,16.40
2023-04-05T06:38:37.471Z,13.90
2023-04-05T06:41:13.343Z,14.00
2023-04-05T06:43:50.294Z,13.10
2023-04-05T06:46:29.215Z,16.30
2023-04-05T06:49:04.147Z,10.00
2023-04-05T06:51:40.146Z,10.20
2023-04-05T06:54:15.955Z,13.30
2023-04-05T06:56:54.412Z,8.30
2023-04-05T06:59:29.256Z,11.50
2023-04-05T07:02:06.763Z,8.10
2023-04-05T07:04:42.569Z,10.00
2023-04-05T07:07:17.615Z,10.80
2023-04-05T07:09:54.346Z,10.50
2023-04-05T07:12:29.992Z,13.50
2023-04-05T07:15:07.664Z,13.10
2023-04-05T07:17:44.654Z,9.60
2023-04-05T07:20:19.268Z,12.30
2023-04-05T07:22:55.056Z,13.80
2023-04-05T07:25:30.514Z,10.50
2023-04-05T07:28:06.609Z,16.50
2023-04-05T07:30:44.591Z,10.70
2023-04-05T07:33:20.067Z,12.50
2023-04-05T07:35:59.735Z,11.00
2023-04-05T07:38:36.430Z,8.50
2023-04-05T07:41:11.744Z,11.90
2023-04-05T07:43:48.517Z,10.00
2023-04-05T07:46:30.196Z,9.10
2023-04-05T07:49:07.952Z,8.20
2023-04-05T07:51:44.979Z,9.90
2023-04-05T07:54:21.881Z,9.10
2023-04-05T07:56:58.442Z,6.10
2023-04-05T07:59:32.975Z,6.60
2023-04-05T08:02:14.666Z,7.00
2023-04-05T08:04:50.663Z,5.50
2023-04-05T08:07:27.601Z,6.10
2023-04-05T08:10:04.291Z,7.70
2023-04-05T08:12:39.139Z,6.20
2023-04-05T08:15:16.914Z,5.60
2023-04-05T08:17:51.158Z,5.20
2023-04-05T08:20:27.045Z,4.50
2023-04-05T08:23:06.381Z,8.60
2023-04-05T08:25:45.352Z,14.60
2023-04-05T08:28:21.169Z,19.70
2023-04-05T08:30:58.820Z,52.10
2023-04-05T08:33:34.330Z,57.20
2023-04-05T08:36:13.229Z,44.20
2023-04-05T08:38:52.358Z,8.00
2023-04-05T08:41:34.230Z,5.60
2023-04-05T08:44:14.347Z,6.80
2023-04-05T08:46:52.956Z,6.40
2023-04-05T08:49:31.533Z,5.40
2023-04-05T08:52:08.076Z,22.00
2023-04-05T08:54:47.096Z,8.60
2023-04-05T08:57:31.745Z,6.20
2023-04-05T09:00:12.503Z,7.80
2023-04-05T09:02:51.657Z,5.60
2023-04-05T09:05:29.270Z,6.70
2023-04-05T09:08:06.033Z,9.00
2023-04-05T09:10:41.662Z,10.20
2023-04-05T09:13:18.512Z,7.30
2023-04-05T09:15:54.810Z,7.90
2023-04-05T09:18:30.145Z,9.20
2023-04-05T09:21:10.492Z,6.90
2023-04-05T09:23:57.752Z,7.80
2023-04-05T09:26:34.373Z,7.80
2023-04-05T09:29:09.893Z,5.10
2023-04-05T09:31:45.463Z,7.10
2023-04-05T09:34:25.350Z,6.90
2023-04-05T09:37:01.150Z,5.90
2023-04-05T09:39:39.580Z,6.90
2023-04-05T09:42:17.564Z,5.70
2023-04-05T09:45:02.856Z,6.10
2023-04-05T09:50:26.981Z,6.30
2023-04-05T09:53:16.072Z,8.30
2023-04-05T09:55:53.970Z,6.90
2023-04-05T09:58:37.036Z,15.90
2023-04-05T10:01:19.693Z,15.50
2023-04-05T10:03:57.954Z,25.00
2023-04-05T10:06:43.668Z,26.70
2023-04-05T10:09:20.214Z,19.80
2023-04-05T10:11:56.807Z,6.60
2023-04-05T10:14:33.592Z,12.90
2023-04-05T10:17:14.940Z,8.40
2023-04-05T10:19:59.671Z,7.40
2023-04-05T10:22:38.874Z,7.80
2023-04-05T10:25:24.546Z,6.10
2023-04-05T10:28:05.164Z,6.50
2023-04-05T10:30:43.552Z,7.60
2023-04-05T10:33:23.334Z,10.00
2023-04-05T10:36:06.685Z,7.80
2023-04-05T10:38:52.906Z,8.00
2023-04-05T10:41:26.341Z,8.20
2023-04-05T10:44:06.396Z,7.20
2023-04-05T10:46:47.931Z,5.80
2023-04-05T10:49:30.890Z,5.60
2023-04-05T10:52:05.924Z,10.00
2023-04-05T10:54:43.593Z,5.80
2023-04-05T10:57:21.100Z,9.90
2023-04-05T10:59:57.693Z,5.50
2023-04-05T11:02:32.632Z,7.20
2023-04-05T11:05:30.108Z,10.50
2023-04-05T11:08:08.607Z,7.60
2023-04-05T11:10:44.287Z,8.30
2023-04-05T11:13:19.299Z,11.90
2023-04-05T11:16:11.962Z,9.20
2023-04-05T11:18:50.157Z,11.10
2023-04-05T11:21:45.054Z,18.80
2023-04-05T11:24:20.238Z,9.60
2023-04-05T11:27:02.094Z,9.90
2023-04-05T11:29:51.664Z,5.30
2023-04-05T11:32:26.111Z,5.50
2023-04-05T11:35:17.949Z,7.00
2023-04-05T11:38:10.640Z,7.30
2023-04-05T11:40:45.472Z,7.10
2023-04-05T11:43:18.984Z,43.60
2023-04-05T11:45:56.258Z,12.90
2023-04-05T11:48:29.945Z,6.50
2023-04-05T11:51:08.822Z,8.60
2023-04-05T11:53:42.665Z,8.80
2023-04-05T11:56:17.812Z,10.60
2023-04-05T11:58:51.850Z,7.00
2023-04-05T12:01:25.200Z,7.90
2023-04-05T12:03:58.953Z,7.40
2023-04-05T12:06:32.636Z,92.50
2023-04-05T12:09:10.179Z,8.40
2023-04-05T12:11:46.096Z,5.30
2023-04-05T12:14:19.587Z,7.70
2023-04-05T12:16:54.096Z,7.40
2023-04-05T12:19:34.258Z,6.80
2023-04-05T12:22:08.196Z,7.50
2023-04-05T12:24:42.489Z,6.80
2023-04-05T12:27:17.251Z,8.80
2023-04-05T12:30:09.762Z,6.50
2023-04-05T12:32:50.266Z,5.20
2023-04-05T12:35:32.052Z,4.80
2023-04-05T12:38:10.572Z,8.10
2023-04-05T12:40:45.959Z,5.20
2023-04-05T12:43:20.528Z,7.10
2023-04-05T12:45:58.777Z,5.20
2023-04-05T12:48:34.016Z,3.90
2023-04-05T12:51:18.101Z,5.90
2023-04-05T12:53:52.254Z,7.50
2023-04-05T12:56:26.213Z,7.20
2023-04-05T12:59:00.444Z,8.20
2023-04-05T13:01:34.284Z,7.70
2023-04-05T13:04:16.148Z,8.30
2023-04-05T13:06:50.809Z,12.10
2023-04-05T13:09:24.064Z,10.30
2023-04-05T13:11:58.865Z,6.60
2023-04-05T13:14:32.248Z,6.70
2023-04-05T13:17:05.867Z,6.80
2023-04-05T13:19:39.627Z,137.00
2023-04-05T13:22:12.435Z,138.30
2023-04-05T13:24:47.448Z,193.80
2023-04-05T13:27:21.600Z,12.30
2023-04-05T13:29:55.090Z,8.30
2023-04-05T13:32:28.542Z,10.50
2023-04-05T13:35:01.693Z,8.20
2023-04-05T13:37:34.401Z,6.90
2023-04-05T13:40:08.980Z,8.30
2023-04-05T13:42:42.628Z,6.50
2023-04-05T13:45:15.617Z,11.30
2023-04-05T13:47:48.659Z,9.70
2023-04-05T13:50:22.470Z,8.60
2023-04-05T13:52:56.311Z,9.20
2023-04-05T13:55:29.039Z,9.80
2023-04-05T13:58:02.498Z,11.30
2023-04-05T14:00:36.566Z,5.70
2023-04-05T14:03:11.948Z,6.60
2023-04-05T14:05:49.193Z,9.50
2023-04-05T14:08:23.323Z,14.20
2023-04-05T14:10:56.672Z,9.10
2023-04-05T14:13:30.509Z,9.60
2023-04-05T14:16:04.526Z,5.10
2023-04-05T14:18:37.819Z,6.60
2023-04-05T14:21:12.454Z,8.90
2023-04-05T14:23:47.097Z,6.10
2023-04-05T14:26:20.012Z,10.00
2023-04-05T14:28:54.705Z,8.30
2023-04-05T14:31:29.090Z,9.30
2023-04-05T14:34:02.252Z,6.90
2023-04-05T14:36:35.137Z,6.70
2023-04-05T14:39:09.750Z,6.20
2023-04-05T14:41:42.489Z,6.50
2023-04-05T14:44:16.489Z,5.60
2023-04-05T14:46:52.483Z,6.10
2023-04-05T14:49:27.625Z,7.40
2023-04-05T14:52:01.147Z,7.00
2023-04-05T14:54:35.365Z,12.00
2023-04-05T14:57:09.358Z,21.10
2023-04-05T14:59:43.659Z,13.70
2023-04-05T15:02:17.625Z,8.90
2023-04-05T15:04:52.534Z,7.00
2023-04-05T15:07:25.777Z,25.90
2023-04-05T15:09:59.856Z,42.20
2023-04-05T15:12:33.502Z,24.80
2023-04-05T15:15:09.635Z,9.10
2023-04-05T15:17:44.056Z,8.30
2023-04-05T15:20:17.198Z,18.20
2023-04-05T15:22:51.302Z,51.30
2023-04-05T15:25:24.192Z,48.00
2023-04-05T15:28:00.282Z,25.20
2023-04-05T15:30:35.913Z,53.10
2023-04-05T15:33:09.776Z,53.90
2023-04-05T15:35:43.511Z,35.30
2023-04-05T15:38:16.921Z,15.20
2023-04-05T15:40:53.025Z,80.80
2023-04-05T15:43:26.887Z,43.10
2023-04-05T15:46:00.311Z,90.30
2023-04-05T15:48:34.408Z,36.60
2023-04-05T15:51:09.127Z,89.60
2023-04-05T15:53:42.761Z,87.80
2023-04-05T15:56:16.785Z,20.50
2023-04-05T15:58:50.262Z,39.20
2023-04-05T16:01:24.573Z,37.00
2023-04-05T16:03:57.452Z,9.40
2023-04-05T16:06:31.646Z,8.70
2023-04-05T16:09:06.145Z,10.60
2023-04-05T16:11:39.890Z,8.90
2023-04-05T16:14:14.080Z,40.10
2023-04-05T16:16:53.737Z,33.80
2023-04-05T16:19:27.718Z,13.20
2023-04-05T16:22:03.503Z,9.90
2023-04-05T16:24:38.587Z,12.50
2023-04-05T16:27:12.584Z,9.60
2023-04-05T16:29:46.862Z,9.50
2023-04-05T16:32:20.454Z,11.60
2023-04-05T16:34:54.104Z,9.00
2023-04-05T16:37:28.630Z,18.00
2023-04-05T16:40:03.075Z,10.10
2023-04-05T16:42:36.437Z,12.20
2023-04-05T16:45:13.266Z,12.00
2023-04-05T16:47:46.923Z,15.40
2023-04-05T16:50:21.245Z,12.80
2023-04-05T16:52:54.553Z,10.00
2023-04-05T16:55:27.907Z,10.10
2023-04-05T16:58:01.722Z,8.10
2023-04-05T17:00:36.040Z,7.80
2023-04-05T17:03:09.426Z,8.80
2023-04-05T17:05:42.784Z,8.60
2023-04-05T17:08:15.941Z,11.40
2023-04-05T17:10:49.732Z,18.60
2023-04-05T17:13:23.695Z,9.90
2023-04-05T17:15:57.083Z,10.20
2023-04-05T17:18:30.690Z,15.20
2023-04-05T17:21:05.259Z,17.60
2023-04-05T17:23:39.189Z,11.00
2023-04-05T17:26:12.806Z,11.30
2023-04-05T17:28:46.218Z,13.10
2023-04-05T17:31:19.261Z,9.90
2023-04-05T17:33:52.779Z,8.80
2023-04-05T17:36:26.278Z,8.70
2023-04-05T17:38:59.851Z,10.00
2023-04-05T17:41:32.881Z,8.90
2023-04-05T17:44:06.516Z,9.80
2023-04-05T17:46:46.351Z,8.00
2023-04-05T17:49:24.628Z,9.70
2023-04-05T17:51:57.672Z,10.10
2023-04-05T17:54:32.009Z,12.20
2023-04-05T17:57:05.317Z,11.90
2023-04-05T17:59:38.465Z,12.20
2023-04-05T18:02:12.389Z,12.70
2023-04-05T18:04:45.891Z,13.10
2023-04-05T18:07:19.518Z,13.70
2023-04-05T18:09:52.581Z,14.40
2023-04-05T18:12:27.813Z,14.00
2023-04-05T18:15:01.525Z,14.90
2023-04-05T18:17:35.148Z,17.50
2023-04-05T18:20:11.016Z,15.80
2023-04-05T18:22:44.003Z,12.80
2023-04-05T18:25:21.451Z,14.40
2023-04-05T18:27:55.208Z,14.70
2023-04-05T18:30:28.549Z,12.30
2023-04-05T18:33:01.981Z,12.80
2023-04-05T18:35:35.404Z,13.50
2023-04-05T18:38:09.090Z,13.30
2023-04-05T18:40:43.387Z,14.30
2023-04-05T18:43:17.935Z,16.30
2023-04-05T18:45:55.923Z,13.90
2023-04-05T18:48:29.250Z,12.50
2023-04-05T18:51:02.592Z,14.40
2023-04-05T18:53:35.629Z,15.30
2023-04-05T18:56:10.575Z,20.70
2023-04-05T18:58:46.058Z,18.10
2023-04-05T19:01:20.810Z,15.30
2023-04-05T19:03:54.192Z,26.40
2023-04-05T19:06:29.596Z,21.20
2023-04-05T19:09:05.345Z,14.50
2023-04-05T19:11:39.279Z,16.80
2023-04-05T19:14:13.166Z,24.90
2023-04-05T19:16:48.455Z,40.50
2023-04-05T19:19:22.721Z,37.80
2023-04-05T19:21:59.174Z,28.20
2023-04-05T19:24:34.119Z,17.90
2023-04-05T19:27:07.426Z,35.30
2023-04-05T19:29:40.842Z,42.70
2023-04-05T19:32:14.435Z,18.80
2023-04-05T19:34:47.626Z,14.70
2023-04-05T19:37:21.944Z,19.50
2023-04-05T19:39:55.717Z,19.90
2023-04-05T19:42:29.567Z,13.90
2023-04-05T19:45:03.610Z,22.00
2023-04-05T19:47:43.540Z,16.20
2023-04-05T19:50:48.744Z,23.00
2023-04-05T19:53:43.093Z,21.20
2023-04-05T19:56:21.202Z,24.80
2023-04-05T19:58:59.517Z,21.80
2023-04-05T20:01:38.279Z,25.10
2023-04-05T20:04:17.310Z,28.60
2023-04-05T20:06:53.359Z,26.20
2023-04-05T20:09:29.012Z,37.00
2023-04-05T20:12:03.897Z,25.10
2023-04-05T20:14:42.243Z,26.70
2023-04-05T20:17:18.969Z,32.20
2023-04-05T20:20:01.202Z,31.20
2023-04-05T20:22:35.852Z,31.10
2023-04-05T20:25:44.235Z,27.30
2023-04-05T20:28:35.525Z,32.40
2023-04-05T20:31:11.331Z,37.00
2023-04-05T20:33:54.075Z,34.30
2023-04-05T20:36:34.452Z,25.80
2023-04-05T20:39:08.450Z,34.30
2023-04-05T20:41:42.846Z,36.40
2023-04-05T20:44:16.181Z,36.30
2023-04-05T20:46:49.087Z,34.00
2023-04-05T20:49:22.425Z,24.90
2023-04-05T20:51:57.361Z,41.40
2023-04-05T20:54:31.717Z,47.90
2023-04-05T20:57:05.819Z,77.20
2023-04-05T20:59:38.744Z,78.90
2023-04-05T21:02:11.577Z,57.30
2023-04-05T21:04:45.734Z,31.60
2023-04-05T21:07:19.201Z,25.60
2023-04-05T21:09:52.374Z,21.80
2023-04-05T21:12:25.387Z,24.10
2023-04-05T21:15:00.408Z,24.10
2023-04-05T21:17:34.078Z,23.60
2023-04-05T21:20:08.489Z,24.80
2023-04-05T21:22:41.509Z,21.80
2023-04-05T21:25:14.555Z,21.30
2023-04-05T21:27:49.397Z,22.80
2023-04-05T21:30:22.522Z,23.30
2023-04-05T21:32:57.612Z,24.30
2023-04-05T21:35:31.463Z,20.70
2023-04-05T21:38:04.854Z,21.40
2023-04-05T21:40:37.845Z,35.80
2023-04-05T21:43:11.389Z,31.40
2023-04-05T21:45:45.976Z,23.50
2023-04-05T21:48:19.031Z,25.30
2023-04-05T21:50:52.152Z,24.00
2023-04-05T21:53:25.566Z,23.30
2023-04-05T21:55:59.073Z,21.80
2023-04-05T21:58:33.681Z,23.20
2023-04-05T22:01:06.741Z,24.70
2023-04-05T22:03:39.571Z,22.50
2023-04-05T22:06:13.272Z,26.00
2023-04-05T22:08:47.804Z,19.90
2023-04-05T22:11:22.401Z,23.90
2023-04-05T22:13:56.564Z,23.00
2023-04-05T22:16:29.993Z,22.80
2023-04-05T22:19:04.770Z,24.70
2023-04-05T22:21:37.715Z,23.40
2023-04-05T22:24:12.426Z,23.40
2023-04-05T22:26:45.351Z,21.80
2023-04-05T22:29:18.129Z,20.30
2023-04-05T22:31:51.091Z,20.20
2023-04-05T22:34:23.878Z,21.00
2023-04-05T22:36:57.145Z,20.90
2023-04-05T22:39:30.337Z,19.70
2023-04-05T22:42:03.486Z,22.00
2023-04-05T22:44:36.392Z,20.50
2023-04-05T22:47:09.156Z,21.10
2023-04-05T22:49:42.078Z,20.60
2023-04-05T22:52:14.898Z,20.30
2023-04-05T22:54:47.707Z,20.50
2023-04-05T22:57:20.737Z,21.50
2023-04-05T22:59:53.983Z,18.60
2023-04-05T23:02:29.587Z,22.80
2023-04-05T23:05:02.982Z,24.80
2023-04-05T23:07:35.842Z,22.50
2023-04-05T23:10:11.214Z,26.80
2023-04-05T23:12:44.706Z,21.30
2023-04-05T23:15:18.497Z,22.20
2023-04-05T23:17:52.575Z,21.30
2023-04-05T23:20:25.803Z,19.50
2023-04-05T23:22:58.925Z,21.60
2023-04-05T23:25:32.232Z,26.70
2023-04-05T23:28:05.050Z,27.30
2023-04-05T23:30:38.089Z,28.20
2023-04-05T23:33:13.123Z,31.80
2023-04-05T23:35:47.245Z,37.30
2023-04-05T23:38:20.446Z,35.00
2023-04-05T23:40:53.941Z,36.20
2023-04-05T23:43:26.674Z,36.90
2023-04-05T23:46:01.065Z,41.60
2023-04-05T23:48:34.417Z,47.90
2023-04-05T23:51:09.118Z,52.80
2023-04-05T23:53:42.237Z,62.00
2023-04-05T23:56:16.628Z,62.60
2023-04-05T23:58:49.863Z,55.50
